Time;durP1;ratioP1;P1;durP2;ratioP2;P2;SDS_P1;SDS_P2;PMS_P1;PMS_P2;Temp;Humidity;BMP_temperature;BMP_pressure;BME280_temperature;BME280_humidity;BME280_pressure;Samples;Min_cycle;Max_cycle;Signal;HPM_P1;HPM_P2
2023/08/03 00:01:04;;;;;;;4.65;1.40;;;16.80;99.90;;;;;;5069245;28;20203;-80
2023/08/03 00:03:30;;;;;;;6.90;1.70;;;16.80;99.90;;;;;;5068093;28;20221;-81
2023/08/03 00:05:57;;;;;;;4.75;1.30;;;16.80;99.90;;;;;;5068214;28;20229;-80
2023/08/03 00:08:24;;;;;;;5.95;1.67;;;16.70;99.90;;;;;;5067976;28;20227;-80
2023/08/03 00:10:51;;;;;;;6.18;1.80;;;16.70;99.90;;;;;;5068080;28;20267;-81
2023/08/03 00:13:18;;;;;;;4.68;1.60;;;16.70;99.90;;;;;;5068467;28;20695;-80
2023/08/03 00:15:44;;;;;;;4.43;1.60;;;16.80;99.90;;;;;;5067973;28;20213;-80
2023/08/03 00:18:13;;;;;;;3.40;1.10;;;16.70;99.90;;;;;;5067974;28;20261;-80
2023/08/03 00:20:39;;;;;;;4.43;1.30;;;16.70;99.90;;;;;;5068364;28;20668;-80
2023/08/03 00:23:06;;;;;;;3.75;1.15;;;16.60;99.90;;;;;;5068224;28;20237;-80
2023/08/03 00:25:33;;;;;;;3.17;1.30;;;16.70;99.90;;;;;;5073791;28;20237;-80
2023/08/03 00:28:00;;;;;;;5.32;1.15;;;16.60;99.90;;;;;;5076353;28;20677;-81
2023/08/03 00:30:27;;;;;;;3.55;1.27;;;16.70;99.90;;;;;;5066426;28;20214;-80
2023/08/03 00:32:53;;;;;;;2.78;1.20;;;16.70;99.90;;;;;;5066734;28;20274;-81
2023/08/03 00:35:21;;;;;;;2.20;1.60;;;16.70;99.90;;;;;;5068059;28;20283;-80
2023/08/03 00:37:51;;;;;;;2.53;1.20;;;16.70;99.90;;;;;;5067498;28;20223;-81
2023/08/03 00:40:18;;;;;;;5.20;1.35;;;16.70;99.90;;;;;;5067904;28;20233;-81
2023/08/03 00:42:45;;;;;;;4.03;1.38;;;16.60;99.90;;;;;;5067489;28;20226;-80
2023/08/03 00:45:12;;;;;;;3.58;1.35;;;16.60;99.90;;;;;;5067272;28;20219;-80
2023/08/03 00:47:39;;;;;;;3.88;1.30;;;16.60;99.90;;;;;;5066530;28;20261;-81
2023/08/03 00:50:07;;;;;;;2.38;1.45;;;16.80;99.90;;;;;;5066939;28;20218;-80
2023/08/03 00:52:35;;;;;;;2.80;1.10;;;16.80;99.90;;;;;;5066758;28;20206;-81
2023/08/03 00:55:02;;;;;;;5.72;1.80;;;16.80;99.90;;;;;;5071462;28;20199;-80
2023/08/03 00:57:29;;;;;;;1.83;1.38;;;16.80;99.90;;;;;;5066270;28;20252;-80
2023/08/03 00:59:57;;;;;;;4.22;1.50;;;16.70;99.90;;;;;;5067690;28;20194;-80
2023/08/03 01:02:23;;;;;;;4.03;1.90;;;16.60;99.90;;;;;;5058317;28;20222;-81
2023/08/03 01:04:50;;;;;;;4.32;1.80;;;16.70;99.90;;;;;;5064542;28;20219;-80
2023/08/03 01:07:17;;;;;;;4.97;1.50;;;16.60;99.90;;;;;;5064889;28;20253;-80
2023/08/03 01:09:46;;;;;;;4.15;1.33;;;16.70;99.90;;;;;;5066257;28;20241;-81
2023/08/03 01:12:13;;;;;;;5.22;1.40;;;16.70;99.90;;;;;;5065815;28;20705;-80
2023/08/03 01:14:39;;;;;;;4.45;1.50;;;16.60;99.90;;;;;;5066268;28;20230;-81
2023/08/03 01:17:07;;;;;;;3.17;1.92;;;16.70;99.90;;;;;;5066745;28;20242;-80
2023/08/03 01:19:33;;;;;;;5.00;1.65;;;16.50;99.90;;;;;;5063694;28;20263;-80
2023/08/03 01:22:01;;;;;;;2.33;1.27;;;16.50;99.90;;;;;;5075658;28;20668;-80
2023/08/03 01:24:30;;;;;;;4.68;1.30;;;16.50;99.90;;;;;;5076168;28;20246;-80
2023/08/03 01:27:00;;;;;;;2.95;1.23;;;16.50;99.90;;;;;;5064950;28;20234;-80
2023/08/03 01:29:27;;;;;;;6.45;1.65;;;16.50;99.90;;;;;;5066020;28;20207;-81
2023/08/03 01:31:56;;;;;;;3.58;1.77;;;16.30;99.90;;;;;;5065765;28;20199;-80
2023/08/03 01:34:24;;;;;;;4.95;1.65;;;16.30;99.90;;;;;;5065932;28;20199;-80
2023/08/03 01:36:51;;;;;;;6.35;1.30;;;16.30;99.90;;;;;;5065819;28;20264;-80
2023/08/03 01:39:17;;;;;;;8.10;1.65;;;16.30;99.90;;;;;;5064791;28;20230;-80
2023/08/03 01:41:46;;;;;;;3.50;1.75;;;16.30;99.90;;;;;;5066760;28;20214;-81
2023/08/03 01:44:25;;;;;;;3.33;1.30;;;16.20;99.90;;;;;;5064987;28;20229;-81
2023/08/03 01:46:53;;;;;;;3.97;1.50;;;16.40;99.90;;;;;;5058248;28;20730;-81
2023/08/03 01:49:22;;;;;;;3.28;1.33;;;16.50;99.90;;;;;;5066273;28;20258;-80
2023/08/03 01:51:49;;;;;;;2.30;1.17;;;16.40;99.90;;;;;;5065508;28;20207;-80
2023/08/03 01:54:16;;;;;;;9.25;1.50;;;16.40;99.90;;;;;;5073602;28;20667;-80
2023/08/03 01:56:43;;;;;;;7.53;1.73;;;16.50;99.90;;;;;;5065125;28;20213;-80
2023/08/03 01:59:11;;;;;;;3.92;1.23;;;16.50;99.90;;;;;;5065797;28;20252;-81
2023/08/03 02:01:39;;;;;;;5.07;1.30;;;16.70;99.90;;;;;;5065269;28;20677;-81
2023/08/03 02:04:06;;;;;;;4.57;1.45;;;16.70;99.90;;;;;;5065194;28;20235;-80
2023/08/03 02:06:33;;;;;;;6.57;1.50;;;16.70;99.90;;;;;;5066219;28;20268;-80
2023/08/03 02:08:59;;;;;;;4.75;1.55;;;16.80;99.90;;;;;;5064829;28;20299;-80
2023/08/03 02:11:26;;;;;;;6.80;2.00;;;16.80;99.90;;;;;;5064743;28;20236;-80
2023/08/03 02:13:53;;;;;;;7.35;1.33;;;16.80;99.90;;;;;;5064491;28;20211;-81
2023/08/03 02:16:21;;;;;;;6.32;1.38;;;16.80;99.90;;;;;;5064819;28;20635;-82
2023/08/03 02:18:48;;;;;;;5.53;1.63;;;16.80;99.90;;;;;;5065164;28;20229;-81
2023/08/03 02:21:15;;;;;;;2.10;1.38;;;16.80;99.90;;;;;;5065776;28;20231;-81
2023/08/03 02:23:42;;;;;;;3.67;1.20;;;16.80;99.90;;;;;;5065030;28;20199;-81
2023/08/03 02:26:09;;;;;;;6.05;1.60;;;16.80;99.90;;;;;;5064860;28;20215;-81
2023/08/03 02:28:36;;;;;;;5.35;1.55;;;16.80;99.90;;;;;;5064787;28;20627;-81
2023/08/03 02:31:03;;;;;;;8.60;1.83;;;16.70;99.90;;;;;;5065473;28;20211;-81
2023/08/03 02:33:31;;;;;;;3.67;1.73;;;16.90;99.90;;;;;;5064536;28;20298;-82
2023/08/03 02:35:58;;;;;;;4.88;1.45;;;16.80;99.90;;;;;;5065179;28;20597;-81
2023/08/03 02:38:25;;;;;;;5.10;1.27;;;16.80;99.90;;;;;;5064203;28;20227;-80
2023/08/03 02:40:52;;;;;;;5.60;1.73;;;16.80;99.90;;;;;;5063557;28;20676;-80
2023/08/03 02:43:19;;;;;;;5.63;2.00;;;17.00;99.90;;;;;;5053628;28;20206;-80
2023/08/03 02:45:46;;;;;;;3.40;1.48;;;16.90;99.90;;;;;;5059352;28;20246;-80
2023/08/03 02:48:13;;;;;;;5.78;1.40;;;16.90;99.90;;;;;;5061813;28;20345;-81
2023/08/03 02:50:41;;;;;;;4.10;1.50;;;16.90;99.90;;;;;;5044390;28;20215;-80
2023/08/03 02:53:08;;;;;;;3.60;1.42;;;16.80;99.90;;;;;;5057082;28;20661;-80
2023/08/03 02:55:35;;;;;;;2.92;1.10;;;16.90;99.90;;;;;;5064398;28;20649;-81
2023/08/03 02:58:01;;;;;;;4.72;1.38;;;16.90;99.90;;;;;;5063780;28;20241;-80
2023/08/03 03:00:28;;;;;;;2.42;0.85;;;16.90;99.90;;;;;;5064118;28;20366;-81
2023/08/03 03:02:55;;;;;;;2.05;1.00;;;16.80;99.90;;;;;;5064728;28;20203;-82
2023/08/03 03:05:22;;;;;;;3.78;1.30;;;16.80;99.90;;;;;;5066127;28;20215;-81
2023/08/03 03:07:50;;;;;;;4.63;1.33;;;16.70;99.90;;;;;;5065853;28;20245;-81
2023/08/03 03:10:17;;;;;;;3.60;1.30;;;16.50;99.90;;;;;;5064288;28;20203;-81
2023/08/03 03:12:44;;;;;;;4.32;1.40;;;16.60;99.90;;;;;;5065779;28;20230;-81
2023/08/03 03:15:11;;;;;;;6.30;1.20;;;16.40;99.90;;;;;;5064372;28;20207;-81
2023/08/03 03:17:38;;;;;;;4.95;1.52;;;16.40;99.90;;;;;;5064296;28;20282;-82
2023/08/03 03:20:06;;;;;;;3.92;1.67;;;16.30;99.90;;;;;;5061627;28;20234;-81
2023/08/03 03:22:35;;;;;;;3.88;1.08;;;16.30;99.90;;;;;;5062964;28;20298;-81
2023/08/03 03:25:03;;;;;;;3.40;1.17;;;16.20;99.90;;;;;;5064369;28;20221;-81
2023/08/03 03:27:33;;;;;;;2.85;1.10;;;16.20;99.90;;;;;;5066534;28;20230;-81
2023/08/03 03:29:59;;;;;;;2.53;0.95;;;16.30;99.90;;;;;;5069315;28;20574;-82
2023/08/03 03:32:26;;;;;;;4.93;1.20;;;16.30;99.90;;;;;;5060807;28;20205;-81
2023/08/03 03:34:53;;;;;;;5.82;1.60;;;16.20;99.90;;;;;;5068080;28;20282;-81
2023/08/03 03:37:20;;;;;;;3.20;2.03;;;16.20;99.90;;;;;;5065226;28;20231;-81
2023/08/03 03:39:47;;;;;;;1.27;1.10;;;16.30;99.90;;;;;;5063919;28;20281;-81
2023/08/03 03:42:15;;;;;;;2.03;0.70;;;16.30;99.90;;;;;;5065919;28;20227;-81
2023/08/03 03:44:42;;;;;;;2.35;1.13;;;16.20;99.90;;;;;;5067239;28;20222;-82
2023/08/03 03:47:09;;;;;;;1.50;0.70;;;16.20;99.90;;;;;;5067669;28;20227;-82
2023/08/03 03:49:36;;;;;;;3.25;1.05;;;16.20;99.90;;;;;;5069128;28;20271;-81
2023/08/03 03:52:03;;;;;;;1.23;0.80;;;16.30;99.90;;;;;;5068876;28;20202;-82
2023/08/03 03:54:30;;;;;;;3.97;1.15;;;16.30;99.90;;;;;;5067883;28;20203;-80
2023/08/03 03:56:58;;;;;;;2.28;0.90;;;16.30;99.90;;;;;;5068932;28;20207;-82
2023/08/03 03:59:26;;;;;;;3.42;1.05;;;16.30;99.90;;;;;;5069341;28;20206;-81
2023/08/03 04:01:53;;;;;;;2.08;0.93;;;16.30;99.90;;;;;;5068022;28;20653;-82
2023/08/03 04:04:19;;;;;;;1.40;0.90;;;16.40;99.90;;;;;;5066695;28;20261;-83
2023/08/03 04:06:46;;;;;;;2.85;0.75;;;16.50;99.90;;;;;;5065270;28;20291;-82
2023/08/03 04:09:13;;;;;;;4.47;1.00;;;16.40;99.90;;;;;;5066101;28;20267;-82
2023/08/03 04:11:40;;;;;;;3.38;1.38;;;16.50;99.90;;;;;;5066345;28;20276;-83
2023/08/03 04:14:07;;;;;;;2.70;0.95;;;16.50;99.90;;;;;;5066275;28;20291;-81
2023/08/03 04:16:35;;;;;;;3.30;1.00;;;16.50;99.90;;;;;;5063163;28;20291;-81
2023/08/03 04:19:02;;;;;;;1.33;0.98;;;16.70;99.90;;;;;;5062080;28;20306;-83
2023/08/03 04:21:29;;;;;;;1.08;0.95;;;16.60;99.90;;;;;;5066092;28;20219;-81
2023/08/03 04:23:55;;;;;;;1.35;0.95;;;16.60;99.90;;;;;;5065671;28;20234;-81
2023/08/03 04:26:22;;;;;;;1.00;0.95;;;16.50;99.90;;;;;;5065568;28;20223;-82
2023/08/03 04:28:49;;;;;;;1.45;1.05;;;16.50;99.90;;;;;;5066422;28;20225;-81
2023/08/03 04:31:16;;;;;;;2.38;1.38;;;16.30;99.90;;;;;;5066651;28;20672;-81
2023/08/03 04:33:44;;;;;;;3.13;1.38;;;16.40;99.90;;;;;;5067541;28;20211;-82
2023/08/03 04:36:11;;;;;;;1.55;1.20;;;16.20;99.90;;;;;;5066736;28;20536;-82
2023/08/03 04:38:38;;;;;;;3.63;1.25;;;16.30;99.90;;;;;;5065288;28;20234;-82
2023/08/03 04:41:04;;;;;;;4.03;1.15;;;16.50;99.90;;;;;;5065938;28;20261;-82
2023/08/03 04:43:31;;;;;;;4.72;1.50;;;16.40;99.90;;;;;;5057120;28;20603;-82
2023/08/03 04:45:58;;;;;;;2.88;1.02;;;16.50;99.90;;;;;;5067244;28;20233;-82
2023/08/03 04:48:25;;;;;;;2.92;0.95;;;16.40;99.90;;;;;;5065887;28;20257;-82
2023/08/03 04:50:53;;;;;;;1.65;0.98;;;16.50;99.90;;;;;;5067531;28;20206;-81
2023/08/03 04:53:20;;;;;;;1.52;0.80;;;16.40;99.90;;;;;;5067672;28;20285;-81
2023/08/03 04:55:47;;;;;;;3.30;1.13;;;16.30;99.90;;;;;;5066717;28;20214;-81
2023/08/03 04:58:15;;;;;;;0.70;0.70;;;16.40;99.90;;;;;;5066575;28;20230;-81
2023/08/03 05:00:42;;;;;;;1.65;0.95;;;16.30;99.90;;;;;;5067084;28;20203;-82
2023/08/03 05:03:09;;;;;;;2.95;1.05;;;16.30;99.90;;;;;;5066390;28;20263;-81
2023/08/03 05:05:36;;;;;;;2.15;1.30;;;16.40;99.90;;;;;;5066123;28;20238;-82
2023/08/03 05:08:04;;;;;;;4.43;1.23;;;16.40;99.90;;;;;;5064433;28;20739;-82
2023/08/03 05:10:31;;;;;;;1.55;0.95;;;16.50;99.90;;;;;;5065007;28;20289;-81
2023/08/03 05:12:58;;;;;;;0.90;0.90;;;16.50;99.90;;;;;;5062744;28;20205;-81
2023/08/03 05:15:25;;;;;;;3.17;1.05;;;16.60;99.90;;;;;;5064937;28;20205;-82
2023/08/03 05:17:51;;;;;;;1.17;0.85;;;16.70;99.90;;;;;;5058750;28;20246;-81
2023/08/03 05:20:18;;;;;;;1.20;0.90;;;16.70;99.90;;;;;;5064590;28;20262;-82
2023/08/03 05:22:45;;;;;;;0.70;0.70;;;16.70;99.90;;;;;;5064370;28;20203;-81
2023/08/03 05:25:15;;;;;;;0.85;0.85;;;16.70;99.90;;;;;;5063867;28;20253;-81
2023/08/03 05:27:41;;;;;;;0.73;0.73;;;16.70;99.90;;;;;;5061902;28;20314;-80
2023/08/03 05:30:09;;;;;;;1.05;0.80;;;16.70;99.90;;;;;;5064381;28;20203;-82
2023/08/03 05:32:36;;;;;;;1.55;1.02;;;16.70;99.90;;;;;;5057866;28;20238;-82
2023/08/03 05:35:03;;;;;;;2.92;0.90;;;16.70;99.90;;;;;;5063944;28;20264;-82
2023/08/03 05:37:30;;;;;;;2.72;1.48;;;16.80;99.90;;;;;;5072034;28;20258;-80
2023/08/03 05:39:57;;;;;;;1.83;1.20;;;16.80;99.90;;;;;;5062556;28;20270;-82
2023/08/03 05:42:25;;;;;;;2.67;1.10;;;17.00;99.90;;;;;;5064140;28;20562;-82
2023/08/03 05:44:53;;;;;;;3.28;1.20;;;16.90;99.90;;;;;;5064141;28;20207;-82
2023/08/03 05:47:20;;;;;;;3.47;1.70;;;16.90;99.90;;;;;;5064296;28;20219;-81
2023/08/03 05:49:47;;;;;;;1.80;1.33;;;16.90;99.90;;;;;;5056113;28;20734;-81
2023/08/03 05:52:15;;;;;;;1.83;1.10;;;17.10;99.90;;;;;;5064243;28;20289;-81
2023/08/03 05:54:42;;;;;;;0.90;0.90;;;17.00;99.90;;;;;;5065121;28;20199;-82
2023/08/03 05:57:13;;;;;;;3.30;1.30;;;17.20;99.90;;;;;;5063392;28;20580;-81
2023/08/03 05:59:42;;;;;;;1.77;1.40;;;17.10;99.90;;;;;;5054340;28;20206;-81
2023/08/03 06:02:27;;;;;;;3.60;1.20;;;17.20;99.90;;;;;;5064867;28;20624;-82
2023/08/03 06:04:54;;;;;;;2.00;1.20;;;17.20;99.90;;;;;;5057949;28;20676;-81
2023/08/03 06:07:21;;;;;;;4.57;1.13;;;17.20;99.90;;;;;;5062644;28;20235;-82
2023/08/03 06:09:49;;;;;;;1.73;1.45;;;17.20;99.90;;;;;;5063600;28;20230;-82
2023/08/03 06:12:18;;;;;;;1.30;1.20;;;17.20;99.90;;;;;;5064125;28;20207;-82
2023/08/03 06:14:46;;;;;;;3.28;1.60;;;17.30;99.90;;;;;;5063758;28;20263;-81
2023/08/03 06:17:14;;;;;;;1.25;1.15;;;17.30;99.90;;;;;;5063509;28;20262;-81
2023/08/03 06:19:41;;;;;;;2.45;1.10;;;17.40;99.90;;;;;;5055582;28;20242;-81
2023/08/03 06:22:19;;;;;;;2.17;1.58;;;17.50;99.90;;;;;;5063033;28;20210;-82
2023/08/03 06:24:46;;;;;;;2.40;1.17;;;17.40;99.90;;;;;;5057183;28;20234;-82
2023/08/03 06:27:13;;;;;;;1.30;1.20;;;17.40;99.90;;;;;;5063461;28;20225;-82
2023/08/03 06:29:40;;;;;;;2.85;1.42;;;17.40;99.90;;;;;;5062770;28;20580;-81
2023/08/03 06:32:22;;;;;;;2.45;1.33;;;17.40;99.90;;;;;;5063250;28;20310;-81
2023/08/03 06:34:49;;;;;;;1.38;1.20;;;17.40;99.90;;;;;;5056596;28;20285;-81
2023/08/03 06:37:16;;;;;;;1.63;1.00;;;17.40;99.90;;;;;;5062624;28;20225;-81
2023/08/03 06:39:43;;;;;;;1.48;1.30;;;17.40;99.90;;;;;;5055619;28;20253;-81
2023/08/03 06:42:09;;;;;;;2.67;1.10;;;17.30;99.90;;;;;;5063161;28;20210;-81
2023/08/03 06:44:37;;;;;;;1.95;1.00;;;17.40;99.90;;;;;;5063177;28;20214;-82
2023/08/03 06:47:04;;;;;;;2.50;1.10;;;17.40;99.90;;;;;;5059527;28;20219;-81
2023/08/03 06:49:32;;;;;;;1.13;1.08;;;17.50;99.90;;;;;;5044858;28;20215;-80
2023/08/03 06:51:59;;;;;;;2.33;1.20;;;17.50;99.90;;;;;;5057271;28;20238;-81
2023/08/03 06:54:27;;;;;;;0.98;0.95;;;17.50;99.90;;;;;;5069204;28;20203;-81
2023/08/03 06:56:53;;;;;;;2.42;1.50;;;17.30;99.90;;;;;;5074872;28;20225;-82
2023/08/03 06:59:21;;;;;;;1.42;1.33;;;17.20;99.90;;;;;;5063498;28;20209;-81
2023/08/03 07:01:49;;;;;;;2.95;1.58;;;17.10;99.90;;;;;;5062361;28;20272;-81
2023/08/03 07:04:16;;;;;;;1.23;1.20;;;17.20;99.90;;;;;;5063429;28;20207;-80
2023/08/03 07:06:47;;;;;;;3.70;1.42;;;17.30;99.90;;;;;;5062484;28;20256;-82
2023/08/03 07:09:14;;;;;;;3.95;1.88;;;17.50;99.90;;;;;;5064730;28;20199;-80
2023/08/03 07:11:40;;;;;;;1.50;1.15;;;17.70;99.90;;;;;;5064872;28;20648;-81
2023/08/03 07:14:09;;;;;;;1.75;1.40;;;17.60;99.90;;;;;;5064291;28;20684;-82
2023/08/03 07:16:36;;;;;;;2.55;1.50;;;17.70;99.90;;;;;;5065010;28;20202;-81
2023/08/03 07:19:06;;;;;;;3.05;1.23;;;17.70;99.90;;;;;;5065071;28;20230;-81
2023/08/03 07:21:33;;;;;;;3.13;1.02;;;17.70;99.90;;;;;;5064228;28;20210;-82
2023/08/03 07:24:02;;;;;;;2.83;1.75;;;17.60;99.90;;;;;;5062990;28;20213;-80
2023/08/03 07:26:29;;;;;;;2.40;1.33;;;17.70;99.90;;;;;;5062230;28;20218;-81
2023/08/03 07:28:56;;;;;;;2.75;1.23;;;17.70;99.90;;;;;;5063670;28;20226;-82
2023/08/03 07:31:24;;;;;;;1.40;1.30;;;17.80;99.90;;;;;;5062710;28;20199;-81
2023/08/03 07:33:51;;;;;;;1.77;1.00;;;17.80;99.90;;;;;;5064306;28;20661;-82
2023/08/03 07:36:19;;;;;;;2.55;1.30;;;17.80;99.90;;;;;;5063867;28;20265;-81
2023/08/03 07:38:47;;;;;;;1.50;0.90;;;17.90;99.90;;;;;;5062080;28;20669;-82
2023/08/03 07:41:15;;;;;;;1.65;1.13;;;18.00;99.90;;;;;;5062076;28;20284;-82
2023/08/03 07:43:42;;;;;;;1.20;1.10;;;18.00;99.90;;;;;;5065983;28;20271;-81
2023/08/03 07:46:09;;;;;;;2.58;1.27;;;18.00;99.90;;;;;;5068566;28;20286;-81
2023/08/03 07:48:36;;;;;;;2.83;1.10;;;18.00;99.90;;;;;;5063068;28;20290;-81
2023/08/03 07:51:11;;;;;;;3.08;1.30;;;18.00;99.90;;;;;;5063076;28;20207;-80
2023/08/03 07:53:38;;;;;;;4.40;1.63;;;17.80;99.90;;;;;;5063578;28;20245;-83
2023/08/03 07:56:13;;;;;;;1.75;1.20;;;17.60;99.90;;;;;;5064280;28;20670;-81
2023/08/03 07:58:41;;;;;;;1.45;1.35;;;17.50;99.90;;;;;;5063042;28;20234;-81
2023/08/03 08:01:08;;;;;;;1.65;1.55;;;17.40;99.90;;;;;;5063989;28;20214;-86
2023/08/03 08:03:35;;;;;;;1.85;1.55;;;17.40;99.90;;;;;;5062957;28;20215;-81
2023/08/03 08:06:06;;;;;;;1.77;1.20;;;17.60;99.90;;;;;;5063649;28;20223;-81
2023/08/03 08:08:33;;;;;;;1.38;1.35;;;17.70;99.90;;;;;;5062798;28;20237;-82
2023/08/03 08:11:00;;;;;;;1.38;1.27;;;17.70;99.90;;;;;;5064166;28;20199;-81
2023/08/03 08:13:27;;;;;;;1.70;1.60;;;17.90;99.90;;;;;;5064191;28;20555;-81
2023/08/03 08:16:00;;;;;;;2.10;1.10;;;17.90;99.90;;;;;;5067469;28;20207;-81
2023/08/03 08:18:27;;;;;;;2.50;1.35;;;18.00;99.90;;;;;;5068076;28;20227;-81
2023/08/03 08:20:57;;;;;;;1.42;1.27;;;17.90;99.90;;;;;;5074605;28;20195;-81
2023/08/03 08:23:24;;;;;;;1.52;1.42;;;17.90;99.90;;;;;;5066892;28;20195;-81
2023/08/03 08:25:51;;;;;;;3.05;1.40;;;18.00;99.90;;;;;;5068168;28;20225;-81
2023/08/03 08:28:18;;;;;;;2.58;1.65;;;17.80;99.90;;;;;;5067431;28;20286;-80
2023/08/03 08:30:45;;;;;;;1.38;1.27;;;17.80;99.90;;;;;;5057307;28;20208;-79
2023/08/03 08:33:15;;;;;;;1.38;1.17;;;18.00;99.90;;;;;;5057262;28;20199;-81
2023/08/03 08:35:43;;;;;;;2.83;1.30;;;18.20;99.90;;;;;;5061374;28;20206;-81
2023/08/03 08:38:15;;;;;;;1.50;1.40;;;18.30;99.90;;;;;;5060300;28;20227;-82
2023/08/03 08:40:48;;;;;;;1.75;1.27;;;18.40;99.90;;;;;;5058076;28;20207;-81
2023/08/03 08:43:21;;;;;;;2.88;1.60;;;18.50;99.90;;;;;;5058710;28;20203;-82
2023/08/03 08:48:37;;;;;;;1.58;1.25;;;19.10;99.90;;;;;;5060374;28;20254;-81
2023/08/03 08:51:04;;;;;;;1.23;1.00;;;19.20;99.90;;;;;;5057726;28;20229;-80
2023/08/03 08:53:32;;;;;;;3.03;1.45;;;19.20;99.90;;;;;;5056452;28;20260;-81
2023/08/03 08:56:02;;;;;;;1.10;0.90;;;19.20;99.90;;;;;;5062205;28;20294;-81
2023/08/03 08:58:33;;;;;;;2.17;1.10;;;19.00;99.90;;;;;;5058337;28;20231;-81
2023/08/03 09:01:07;;;;;;;2.50;1.30;;;18.90;99.90;;;;;;5059436;28;20645;-80
2023/08/03 09:03:54;;;;;;;4.93;1.30;;;18.60;99.90;;;;;;5059289;28;20207;-81
2023/08/03 09:06:21;;;;;;;3.03;1.10;;;18.30;99.90;;;;;;5060955;28;20288;-81
2023/08/03 09:08:50;;;;;;;2.30;1.15;;;18.10;99.90;;;;;;5057763;28;20235;-81
2023/08/03 09:11:18;;;;;;;2.13;1.20;;;18.00;99.90;;;;;;5064192;28;20218;-81
2023/08/03 09:13:48;;;;;;;1.40;1.27;;;17.70;99.90;;;;;;5062318;28;20227;-82
2023/08/03 09:16:26;;;;;;;6.75;1.85;;;17.80;99.90;;;;;;5059382;28;20195;-81
2023/08/03 09:18:54;;;;;;;2.55;1.48;;;17.70;99.90;;;;;;5059544;28;20235;-79
2023/08/03 09:21:22;;;;;;;1.70;1.60;;;17.80;99.90;;;;;;5063501;28;20207;-81
2023/08/03 09:23:49;;;;;;;1.75;1.50;;;17.60;99.90;;;;;;5055197;28;20226;-81
2023/08/03 09:26:23;;;;;;;3.72;1.52;;;17.30;99.90;;;;;;5061606;28;20289;-80
2023/08/03 09:28:50;;;;;;;2.53;1.40;;;17.00;99.90;;;;;;5062376;28;20254;-81
2023/08/03 09:31:26;;;;;;;1.50;1.40;;;16.80;99.90;;;;;;5064019;28;20235;-81
2023/08/03 09:33:59;;;;;;;2.33;1.70;;;16.80;99.90;;;;;;5058006;28;20794;-81
2023/08/03 09:36:27;;;;;;;2.78;1.08;;;16.70;99.90;;;;;;5057460;28;20233;-80
2023/08/03 09:39:10;;;;;;;1.80;1.30;;;16.70;99.90;;;;;;5060171;28;20234;-80
2023/08/03 09:41:41;;;;;;;1.63;1.00;;;16.70;99.90;;;;;;5058179;28;20202;-81
2023/08/03 09:44:08;;;;;;;1.05;1.05;;;16.70;99.90;;;;;;5052607;28;20208;-82
2023/08/03 09:46:38;;;;;;;1.60;1.00;;;16.70;99.90;;;;;;5051102;28;20284;-80
2023/08/03 09:49:06;;;;;;;1.92;1.17;;;16.80;99.90;;;;;;5054514;28;20223;-83
2023/08/03 09:51:38;;;;;;;1.17;1.08;;;16.80;99.90;;;;;;5060421;28;20302;-82
2023/08/03 09:54:13;;;;;;;1.08;1.08;;;16.90;99.90;;;;;;5061858;28;20291;-83
2023/08/03 09:56:52;;;;;;;1.58;1.48;;;17.10;99.90;;;;;;5056430;28;20210;-82
2023/08/03 09:59:22;;;;;;;1.05;0.82;;;17.00;99.90;;;;;;5058572;28;20256;-82
2023/08/03 10:01:50;;;;;;;0.85;0.80;;;17.20;99.90;;;;;;5057974;28;20214;-81
2023/08/03 10:04:23;;;;;;;0.40;0.40;;;17.40;99.90;;;;;;5060722;28;20203;-80
2023/08/03 10:06:56;;;;;;;1.08;0.77;;;17.10;99.90;;;;;;5048139;28;20234;-81
2023/08/03 10:09:29;;;;;;;0.55;0.55;;;17.10;99.90;;;;;;5058138;28;20202;-82
2023/08/03 10:11:59;;;;;;;0.60;0.60;;;17.10;99.90;;;;;;5060166;28;20730;-81
2023/08/03 10:14:32;;;;;;;0.75;0.70;;;16.90;99.90;;;;;;5056897;28;20199;-82
2023/08/03 10:17:01;;;;;;;0.40;0.40;;;16.90;99.90;;;;;;5058134;28;20207;-81
2023/08/03 10:19:30;;;;;;;0.40;0.40;;;16.90;99.90;;;;;;5054064;28;20213;-82
2023/08/03 10:21:57;;;;;;;0.30;0.30;;;16.90;99.90;;;;;;5059998;28;20215;-82
2023/08/03 10:24:24;;;;;;;0.20;0.20;;;16.90;99.90;;;;;;5052397;28;20269;-82
2023/08/03 10:26:54;;;;;;;0.68;0.40;;;16.90;99.90;;;;;;5055433;28;20313;-83
2023/08/03 10:29:55;;;;;;;0.28;0.28;;;16.80;99.90;;;;;;5061445;28;20214;-82
2023/08/03 10:32:23;;;;;;;1.30;0.30;;;16.80;99.90;;;;;;5056264;28;20231;-83
2023/08/03 10:34:58;;;;;;;0.40;0.40;;;16.80;99.90;;;;;;5055232;28;20215;-82
2023/08/03 10:37:25;;;;;;;0.68;0.45;;;16.80;99.90;;;;;;5053067;28;20616;-81
2023/08/03 10:39:54;;;;;;;0.90;0.60;;;16.90;99.90;;;;;;5058582;28;20239;-82
2023/08/03 10:42:23;;;;;;;0.73;0.50;;;17.20;99.90;;;;;;5054401;28;20215;-83
2023/08/03 10:44:51;;;;;;;0.55;0.32;;;17.00;99.90;;;;;;5061422;28;20314;-82
2023/08/03 10:47:31;;;;;;;0.52;0.50;;;17.00;99.90;;;;;;5061365;28;20233;-81
2023/08/03 10:49:59;;;;;;;1.08;0.70;;;16.90;99.90;;;;;;5061596;28;20217;-81
2023/08/03 10:52:29;;;;;;;0.40;0.40;;;16.70;99.90;;;;;;5056867;28;20226;-81
2023/08/03 10:54:58;;;;;;;1.00;0.93;;;16.70;99.90;;;;;;5054300;28;20202;-82
2023/08/03 10:57:28;;;;;;;1.45;1.05;;;16.70;99.90;;;;;;5058291;28;20222;-81
2023/08/03 10:59:57;;;;;;;1.02;1.02;;;16.80;99.90;;;;;;5054149;28;20207;-81
2023/08/03 11:02:28;;;;;;;1.33;1.20;;;16.80;99.90;;;;;;5052679;28;20207;-81
2023/08/03 11:04:57;;;;;;;1.60;0.98;;;16.90;99.90;;;;;;5059683;28;20601;-81
2023/08/03 11:07:27;;;;;;;0.90;0.90;;;16.80;99.90;;;;;;5051582;28;20227;-82
2023/08/03 11:09:55;;;;;;;0.82;0.80;;;16.80;99.90;;;;;;5059742;28;20229;-82
2023/08/03 11:12:24;;;;;;;1.30;1.20;;;17.00;99.90;;;;;;5059278;28;20207;-82
2023/08/03 11:14:52;;;;;;;1.42;1.10;;;17.00;99.90;;;;;;5054047;28;20571;-82
2023/08/03 11:17:23;;;;;;;1.45;1.35;;;17.20;99.90;;;;;;5052211;28;20501;-82
2023/08/03 11:19:51;;;;;;;1.75;1.65;;;16.90;99.90;;;;;;5059945;28;20271;-82
2023/08/03 11:22:21;;;;;;;2.88;1.30;;;17.00;99.90;;;;;;5056736;28;20207;-82
2023/08/03 11:24:49;;;;;;;2.67;1.42;;;16.90;99.90;;;;;;5060772;28;20210;-82
2023/08/03 11:27:18;;;;;;;1.42;1.33;;;17.10;99.90;;;;;;5056916;28;20227;-82
2023/08/03 11:29:45;;;;;;;1.30;1.20;;;17.10;99.90;;;;;;5060114;28;20275;-81
2023/08/03 11:32:13;;;;;;;1.50;1.40;;;17.30;99.90;;;;;;5058715;28;20202;-82
2023/08/03 11:34:41;;;;;;;2.20;1.40;;;17.50;99.90;;;;;;5060786;28;20250;-84
2023/08/03 11:37:08;;;;;;;1.67;1.33;;;17.60;99.90;;;;;;5058281;28;20698;-82
2023/08/03 11:39:35;;;;;;;2.08;1.40;;;17.60;99.90;;;;;;5057178;28;20218;-82
2023/08/03 11:42:04;;;;;;;1.70;1.60;;;17.60;99.90;;;;;;5060150;28;20207;-81
2023/08/03 11:44:31;;;;;;;1.60;1.50;;;17.50;99.90;;;;;;5059843;28;20225;-81
2023/08/03 11:47:06;;;;;;;3.42;1.88;;;17.40;99.90;;;;;;5051075;28;20298;-82
2023/08/03 11:49:33;;;;;;;1.80;1.70;;;17.40;99.90;;;;;;5058079;28;20217;-82
2023/08/03 11:52:03;;;;;;;3.40;1.90;;;17.40;99.90;;;;;;5061289;28;20265;-82
2023/08/03 11:54:32;;;;;;;2.00;1.70;;;17.40;99.90;;;;;;5057854;28;20238;-81
2023/08/03 11:59:46;;;;;;;2.78;1.80;;;17.30;99.90;;;;;;5062267;28;20235;-81
2023/08/03 12:02:14;;;;;;;2.00;1.80;;;17.20;99.90;;;;;;5056817;28;20261;-81
2023/08/03 12:04:42;;;;;;;1.70;1.60;;;17.30;99.90;;;;;;5067037;28;20211;-82
2023/08/03 12:07:09;;;;;;;2.15;1.80;;;17.30;99.90;;;;;;5061114;28;20253;-80
2023/08/03 12:09:40;;;;;;;1.70;1.60;;;17.50;99.90;;;;;;5064709;28;20734;-81
2023/08/03 12:12:10;;;;;;;1.80;1.70;;;17.70;99.90;;;;;;5054055;28;20211;-82
2023/08/03 12:14:39;;;;;;;1.67;1.50;;;17.70;99.90;;;;;;5061310;28;20207;-81
2023/08/03 12:17:12;;;;;;;3.80;1.90;;;17.80;99.90;;;;;;5057518;28;20217;-81
2023/08/03 12:19:39;;;;;;;1.83;1.52;;;17.80;99.90;;;;;;5057156;28;20207;-81
2023/08/03 12:22:06;;;;;;;1.70;1.60;;;17.90;99.90;;;;;;5058900;28;20211;-81
2023/08/03 12:24:33;;;;;;;2.60;1.63;;;18.00;99.90;;;;;;5074263;28;20203;-81
2023/08/03 12:27:03;;;;;;;1.70;1.60;;;18.10;99.90;;;;;;5068065;28;20210;-85
2023/08/03 12:29:30;;;;;;;1.70;1.60;;;18.30;99.90;;;;;;5067954;28;20211;-81
2023/08/03 12:31:57;;;;;;;1.98;1.65;;;18.30;99.90;;;;;;5067037;28;20271;-81
2023/08/03 12:34:26;;;;;;;1.73;1.63;;;18.70;99.90;;;;;;5067458;28;20304;-82
2023/08/03 12:36:53;;;;;;;1.65;1.40;;;18.60;99.90;;;;;;5067527;28;20273;-83
2023/08/03 12:39:20;;;;;;;1.25;1.23;;;18.60;99.90;;;;;;5067731;28;20226;-82
2023/08/03 12:41:47;;;;;;;1.40;1.30;;;18.60;99.90;;;;;;5068096;28;20218;-81
2023/08/03 12:44:13;;;;;;;1.27;1.23;;;18.50;99.90;;;;;;5067756;28;20241;-81
2023/08/03 12:46:40;;;;;;;1.65;1.55;;;18.40;99.90;;;;;;5067733;28;20218;-82
2023/08/03 12:49:07;;;;;;;1.85;1.30;;;18.20;99.90;;;;;;5068562;28;20287;-81
2023/08/03 12:51:36;;;;;;;1.65;1.55;;;18.30;99.90;;;;;;5068201;28;20262;-82
2023/08/03 12:54:04;;;;;;;2.72;1.40;;;18.30;99.90;;;;;;5067312;28;20612;-82
2023/08/03 12:56:31;;;;;;;1.90;1.50;;;18.20;99.90;;;;;;5066597;28;20207;-82
2023/08/03 12:58:58;;;;;;;2.03;1.90;;;18.20;99.90;;;;;;5066384;28;20321;-82